Time;durP1;ratioP1;P1;durP2;ratioP2;P2;SDS_P1;SDS_P2;PMS_P1;PMS_P2;Temp;Humidity;BMP_temperature;BMP_pressure;BME280_temperature;BME280_humidity;BME280_pressure;Samples;Min_cycle;Max_cycle;Signal;HPM_P1;HPM_P2
2023/05/22 00:00:46;;;;;;;40.57;7.60;;;21.50;54.90;;;;;;5086070;28;20704;-88
2023/05/22 00:03:13;;;;;;;41.33;7.60;;;21.50;54.90;;;;;;5074732;28;20649;-90
2023/05/22 00:05:40;;;;;;;35.00;7.17;;;21.40;54.80;;;;;;5074707;28;20213;-90
2023/05/22 00:08:10;;;;;;;43.87;7.87;;;21.50;54.90;;;;;;5074090;28;20216;-90
2023/05/22 00:10:37;;;;;;;37.10;7.07;;;21.40;54.80;;;;;;5073197;28;20308;-90
2023/05/22 00:13:04;;;;;;;38.93;7.83;;;21.40;54.80;;;;;;5067778;28;20202;-89
2023/05/22 00:15:33;;;;;;;37.80;7.10;;;21.40;54.90;;;;;;5067678;28;20279;-90
2023/05/22 00:18:00;;;;;;;32.60;6.87;;;21.40;54.90;;;;;;5070539;28;20278;-90
2023/05/22 00:20:27;;;;;;;49.70;8.80;;;21.30;54.70;;;;;;5084841;28;20285;-90
2023/05/22 00:22:55;;;;;;;25.67;6.70;;;21.40;54.90;;;;;;5067056;28;20211;-89
2023/05/22 00:25:24;;;;;;;32.23;7.10;;;21.40;54.90;;;;;;5069997;28;20369;-89
2023/05/22 00:27:51;;;;;;;39.27;7.60;;;21.40;54.90;;;;;;5081033;28;20199;-90
2023/05/22 00:30:36;;;;;;;38.60;7.50;;;21.30;54.80;;;;;;5066225;28;20227;-92
2023/05/22 00:33:06;;;;;;;38.57;7.23;;;21.30;54.80;;;;;;5067596;28;20202;-91
2023/05/22 00:35:33;;;;;;;39.20;7.60;;;21.30;54.80;;;;;;5069922;28;20205;-90
2023/05/22 00:38:06;;;;;;;45.97;8.27;;;21.30;54.80;;;;;;5082166;28;20687;-90
2023/05/22 00:40:42;;;;;;;35.33;7.20;;;21.30;54.80;;;;;;5084988;28;20662;-90
2023/05/22 00:43:09;;;;;;;40.30;8.03;;;21.30;54.80;;;;;;5086038;28;20289;-91
2023/05/22 00:45:36;;;;;;;39.70;7.50;;;21.30;54.90;;;;;;5070745;28;20233;-89
2023/05/22 00:48:03;;;;;;;40.00;7.60;;;21.30;54.90;;;;;;5084305;28;20245;-90
2023/05/22 00:50:30;;;;;;;44.53;8.03;;;21.30;54.90;;;;;;5077061;28;20327;-90
2023/05/22 00:52:57;;;;;;;43.63;7.73;;;21.30;54.90;;;;;;5084715;28;20230;-89
2023/05/22 00:55:24;;;;;;;32.67;6.90;;;21.30;54.90;;;;;;5083541;28;20201;-89
2023/05/22 00:57:53;;;;;;;37.73;7.40;;;21.30;54.90;;;;;;5082111;28;20205;-89
2023/05/22 01:00:21;;;;;;;30.97;6.97;;;21.20;54.80;;;;;;5079377;28;20305;-89
2023/05/22 01:02:48;;;;;;;37.90;7.30;;;21.20;55.40;;;;;;5070001;28;20214;-92
2023/05/22 01:05:16;;;;;;;39.60;7.67;;;21.30;54.90;;;;;;5076016;28;20239;-89
2023/05/22 01:07:44;;;;;;;42.63;8.37;;;21.20;54.80;;;;;;5082102;28;20210;-90
2023/05/22 01:10:11;;;;;;;42.03;8.20;;;21.20;54.80;;;;;;5083919;28;20643;-92
2023/05/22 01:12:47;;;;;;;32.83;6.93;;;21.20;54.80;;;;;;5070851;28;20588;-92
2023/05/22 01:15:24;;;;;;;43.73;7.87;;;21.20;54.80;;;;;;5069615;28;20248;-92
2023/05/22 01:18:00;;;;;;;54.60;8.67;;;21.20;54.80;;;;;;5074074;28;20210;-92
2023/05/22 01:20:36;;;;;;;38.90;7.93;;;21.20;54.80;;;;;;5070133;28;20237;-90
2023/05/22 01:23:54;;;;;;;34.10;7.20;;;21.10;54.70;;;;;;5069623;28;20773;-94
2023/05/22 01:26:54;;;;;;;39.43;7.77;;;21.20;54.80;;;;;;5045922;28;20567;-92
2023/05/22 01:29:38;;;;;;;42.17;8.10;;;21.20;54.80;;;;;;5036857;28;20697;-90
2023/05/22 01:32:09;;;;;;;40.00;7.83;;;21.10;54.70;;;;;;5073030;28;20245;-93
2023/05/22 01:34:40;;;;;;;41.63;7.43;;;21.20;55.40;;;;;;5077993;28;20203;-90
2023/05/22 01:37:08;;;;;;;65.97;9.57;;;21.10;54.80;;;;;;5075938;28;20216;-91
2023/05/22 01:39:36;;;;;;;45.67;8.43;;;21.20;54.90;;;;;;5088146;28;20353;-90
2023/05/22 01:42:04;;;;;;;53.47;8.70;;;21.10;54.80;;;;;;5074725;28;20749;-90
2023/05/22 01:44:31;;;;;;;49.63;8.97;;;21.10;54.80;;;;;;5087646;28;21009;-89
2023/05/22 01:47:03;;;;;;;56.93;9.00;;;21.10;54.80;;;;;;5070357;28;20262;-92
2023/05/22 01:49:32;;;;;;;49.10;8.60;;;21.10;54.80;;;;;;5081722;28;20218;-91
2023/05/22 01:52:19;;;;;;;54.33;8.77;;;21.10;54.80;;;;;;5087028;28;20212;-91
2023/05/22 01:54:53;;;;;;;67.23;10.40;;;21.10;54.80;;;;;;5069011;28;20724;-89
2023/05/22 01:57:27;;;;;;;34.00;7.10;;;21.10;54.80;;;;;;5078643;28;20218;-91
2023/05/22 02:00:08;;;;;;;62.33;9.33;;;21.10;54.90;;;;;;5069670;28;20294;-90
2023/05/22 02:02:37;;;;;;;40.33;8.53;;;21.10;54.80;;;;;;5075026;28;20251;-92
2023/05/22 02:05:10;;;;;;;42.20;7.90;;;21.00;54.80;;;;;;5077723;28;20235;-93
2023/05/22 02:07:39;;;;;;;38.53;7.87;;;21.00;54.80;;;;;;5073442;28;20203;-91
2023/05/22 02:10:10;;;;;;;58.90;9.27;;;21.00;54.80;;;;;;5070816;28;20552;-92
2023/05/22 02:12:37;;;;;;;37.17;7.43;;;21.00;54.80;;;;;;5079162;28;20226;-91
2023/05/22 02:15:06;;;;;;;36.43;7.40;;;21.00;54.80;;;;;;5084861;28;20614;-89
2023/05/22 02:17:39;;;;;;;47.53;8.13;;;21.00;54.80;;;;;;5077375;28;20199;-90
2023/05/22 02:20:13;;;;;;;35.30;7.57;;;21.00;54.80;;;;;;5076631;28;20198;-90
2023/05/22 02:22:42;;;;;;;41.40;7.57;;;21.00;54.90;;;;;;5089002;28;20204;-92
2023/05/22 02:25:13;;;;;;;35.20;7.03;;;21.00;54.90;;;;;;5087777;28;20719;-89
2023/05/22 02:27:41;;;;;;;49.37;8.80;;;21.00;54.90;;;;;;5076808;28;20233;-89
2023/05/22 02:30:08;;;;;;;43.57;8.10;;;21.00;54.90;;;;;;5074658;28;20316;-89
2023/05/22 02:32:36;;;;;;;31.10;7.13;;;21.00;54.90;;;;;;5079480;28;20206;-90
2023/05/22 02:35:03;;;;;;;37.63;7.77;;;21.00;54.90;;;;;;5074425;28;20213;-90
2023/05/22 02:37:32;;;;;;;36.57;7.93;;;21.00;54.90;;;;;;5076875;28;20781;-90
2023/05/22 02:39:59;;;;;;;75.90;11.80;;;21.00;55.00;;;;;;5068792;28;20291;-89
2023/05/22 02:42:26;;;;;;;52.80;9.10;;;21.00;55.00;;;;;;5068085;28;20280;-90
2023/05/22 02:44:53;;;;;;;61.90;9.57;;;21.00;55.00;;;;;;5072552;28;20235;-90
2023/05/22 02:47:20;;;;;;;35.80;8.17;;;20.90;54.90;;;;;;5083640;28;20292;-90
2023/05/22 02:49:47;;;;;;;41.63;7.67;;;20.90;54.90;;;;;;5068691;28;20221;-91
2023/05/22 02:52:14;;;;;;;53.97;9.40;;;20.90;54.90;;;;;;5078069;28;20205;-90
2023/05/22 02:54:43;;;;;;;52.57;8.70;;;20.90;54.90;;;;;;5075928;28;20282;-88
2023/05/22 02:57:10;;;;;;;43.50;8.37;;;20.90;54.90;;;;;;5071138;28;20203;-89
2023/05/22 02:59:37;;;;;;;31.73;7.47;;;20.90;54.90;;;;;;5081839;28;20207;-88
2023/05/22 03:02:05;;;;;;;56.37;9.47;;;20.90;54.90;;;;;;5077940;28;20208;-90
2023/05/22 03:04:32;;;;;;;53.23;9.37;;;20.90;54.90;;;;;;5082640;28;20245;-88
2023/05/22 03:07:00;;;;;;;49.33;9.20;;;20.90;55.00;;;;;;5069818;28;20672;-89
2023/05/22 03:09:27;;;;;;;43.77;8.87;;;20.90;55.00;;;;;;5072117;28;20231;-88
2023/05/22 03:11:55;;;;;;;45.63;8.93;;;20.90;55.00;;;;;;5073137;28;20641;-87
2023/05/22 03:14:22;;;;;;;47.60;8.83;;;20.90;55.00;;;;;;5083157;28;20209;-88
2023/05/22 03:16:49;;;;;;;55.67;9.23;;;20.90;55.00;;;;;;5084931;28;20877;-89
2023/05/22 03:19:17;;;;;;;40.37;8.37;;;20.90;55.00;;;;;;5085151;28;20203;-89
2023/05/22 03:21:44;;;;;;;52.50;9.53;;;20.90;55.00;;;;;;5084533;28;20287;-88
2023/05/22 03:24:11;;;;;;;46.03;9.27;;;20.90;55.00;;;;;;5069695;28;20287;-89
2023/05/22 03:26:38;;;;;;;30.23;7.37;;;20.90;55.00;;;;;;5086375;28;20202;-88
2023/05/22 03:29:06;;;;;;;30.47;7.37;;;20.80;54.90;;;;;;5086572;28;20314;-90
2023/05/22 03:31:34;;;;;;;25.50;7.23;;;20.80;55.00;;;;;;5088168;28;20714;-89
2023/05/22 03:34:04;;;;;;;70.47;10.77;;;20.80;55.00;;;;;;5080834;28;20636;-89
2023/05/22 03:36:32;;;;;;;39.63;8.10;;;20.80;55.00;;;;;;5081415;28;20261;-90
2023/05/22 03:39:00;;;;;;;38.90;8.50;;;20.80;55.00;;;;;;5068249;28;20195;-89
2023/05/22 03:41:28;;;;;;;38.13;7.63;;;20.80;55.00;;;;;;5087166;28;20213;-89
2023/05/22 03:43:56;;;;;;;34.07;7.53;;;20.80;55.00;;;;;;5071992;28;20235;-89
2023/05/22 03:46:24;;;;;;;65.60;11.13;;;20.80;55.00;;;;;;5068073;28;20229;-89
2023/05/22 03:48:51;;;;;;;63.17;10.17;;;20.80;55.00;;;;;;5077975;28;20215;-91
2023/05/22 03:51:18;;;;;;;44.43;8.27;;;20.80;55.00;;;;;;5080218;28;20226;-89
2023/05/22 03:53:45;;;;;;;35.27;7.83;;;20.80;55.00;;;;;;5087479;28;20199;-90
2023/05/22 03:56:12;;;;;;;84.60;12.00;;;20.70;54.90;;;;;;5084560;28;20238;-90
2023/05/22 03:58:39;;;;;;;36.77;7.80;;;20.80;55.00;;;;;;5067600;28;20624;-89
2023/05/22 04:01:08;;;;;;;45.77;8.70;;;20.80;55.00;;;;;;5067670;28;20204;-91
2023/05/22 04:03:37;;;;;;;41.97;8.37;;;20.70;55.00;;;;;;5067132;28;20299;-89
2023/05/22 04:06:04;;;;;;;39.40;8.17;;;20.70;55.00;;;;;;5081595;28;20236;-89
2023/05/22 04:08:31;;;;;;;42.97;8.17;;;20.70;55.00;;;;;;5081756;28;20200;-89
2023/05/22 04:10:58;;;;;;;38.03;8.27;;;20.70;55.00;;;;;;5071654;28;20318;-90
2023/05/22 04:13:26;;;;;;;43.53;8.80;;;20.70;55.00;;;;;;5070862;28;20304;-90
2023/05/22 04:15:55;;;;;;;81.43;11.13;;;20.70;55.00;;;;;;5069179;28;20198;-89
2023/05/22 04:18:22;;;;;;;46.30;8.73;;;20.70;55.00;;;;;;5082962;28;20537;-91
2023/05/22 04:20:51;;;;;;;46.00;8.57;;;20.70;55.00;;;;;;5087630;28;20290;-89
2023/05/22 04:23:17;;;;;;;43.00;8.67;;;20.70;55.00;;;;;;5090978;28;20213;-90
2023/05/22 04:25:46;;;;;;;71.47;11.03;;;20.70;55.00;;;;;;5074729;28;20207;-90
2023/05/22 04:28:16;;;;;;;64.10;10.53;;;20.70;55.10;;;;;;5072069;28;20758;-89
2023/05/22 04:30:43;;;;;;;36.47;8.17;;;20.70;55.10;;;;;;5077688;28;20233;-89
2023/05/22 04:33:11;;;;;;;75.07;10.90;;;20.70;55.10;;;;;;5088661;28;20313;-89
2023/05/22 04:35:39;;;;;;;42.07;8.67;;;20.70;55.10;;;;;;5085603;28;20203;-90
2023/05/22 04:38:07;;;;;;;40.47;9.27;;;20.70;55.10;;;;;;5086240;28;20663;-88
2023/05/22 04:40:36;;;;;;;33.67;7.83;;;20.70;55.10;;;;;;5072998;28;21066;-90
2023/05/22 04:43:03;;;;;;;40.47;8.83;;;20.70;55.10;;;;;;5089723;28;20801;-89
2023/05/22 04:45:31;;;;;;;79.80;11.73;;;20.70;55.10;;;;;;5087125;28;20223;-88
2023/05/22 04:48:01;;;;;;;75.33;11.47;;;20.70;55.10;;;;;;5081242;28;20305;-90
2023/05/22 04:50:31;;;;;;;30.10;7.67;;;20.60;55.00;;;;;;5080692;28;20222;-88
2023/05/22 04:53:02;;;;;;;44.17;8.20;;;20.70;55.20;;;;;;5081629;28;20198;-88
2023/05/22 04:55:32;;;;;;;65.27;10.77;;;20.70;55.20;;;;;;5082432;28;20206;-90
2023/05/22 04:57:59;;;;;;;63.37;10.37;;;20.60;55.10;;;;;;5076828;28;20196;-88
2023/05/22 05:00:27;;;;;;;42.30;8.63;;;20.60;55.10;;;;;;5069952;28;20507;-88
2023/05/22 05:02:56;;;;;;;41.60;8.97;;;20.60;55.10;;;;;;5076208;28;20303;-88
2023/05/22 05:05:23;;;;;;;63.00;11.00;;;20.60;55.10;;;;;;5089660;28;20189;-88
2023/05/22 05:07:50;;;;;;;66.70;10.87;;;20.60;55.10;;;;;;5080252;28;20651;-88
2023/05/22 05:10:17;;;;;;;40.30;8.97;;;20.70;55.20;;;;;;5082841;28;20307;-89
2023/05/22 05:12:46;;;;;;;51.53;10.00;;;20.60;55.10;;;;;;5072914;28;20227;-88
2023/05/22 05:15:13;;;;;;;40.77;8.60;;;20.60;55.20;;;;;;5069894;28;20287;-88
2023/05/22 05:17:39;;;;;;;48.60;9.57;;;20.60;55.10;;;;;;5069005;28;20282;-89
2023/05/22 05:20:08;;;;;;;37.27;8.73;;;20.60;55.10;;;;;;5081658;28;20330;-87
2023/05/22 05:22:36;;;;;;;64.73;11.37;;;20.60;55.20;;;;;;5072316;28;20321;-88
2023/05/22 05:25:04;;;;;;;45.27;9.60;;;20.60;55.20;;;;;;5082970;28;20199;-88
2023/05/22 05:27:31;;;;;;;37.37;8.83;;;20.60;55.20;;;;;;5085890;28;20225;-88
2023/05/22 05:29:59;;;;;;;41.97;10.03;;;20.60;55.20;;;;;;5088420;28;20289;-88
2023/05/22 05:32:27;;;;;;;49.23;10.50;;;20.60;55.20;;;;;;5090576;28;20244;-88
2023/05/22 05:34:55;;;;;;;40.37;9.33;;;20.60;55.20;;;;;;5074995;28;20287;-88
2023/05/22 05:37:22;;;;;;;42.90;9.60;;;20.60;55.20;;;;;;5089871;28;20245;-88
2023/05/22 05:39:49;;;;;;;37.47;9.57;;;20.60;55.20;;;;;;5082522;28;20656;-87
2023/05/22 05:42:16;;;;;;;39.90;8.67;;;20.60;55.20;;;;;;5069758;28;20287;-88
2023/05/22 05:44:43;;;;;;;54.77;10.27;;;20.60;55.20;;;;;;5071634;28;20571;-88
2023/05/22 05:47:12;;;;;;;41.20;9.67;;;20.60;55.20;;;;;;5074040;28;20204;-92
2023/05/22 05:49:39;;;;;;;44.00;9.57;;;20.50;55.10;;;;;;5069407;28;20211;-88
2023/05/22 05:52:06;;;;;;;45.37;9.87;;;20.50;55.10;;;;;;5079020;28;20306;-88
2023/05/22 05:54:33;;;;;;;44.10;9.77;;;20.60;55.20;;;;;;5074336;28;20686;-87
2023/05/22 05:57:00;;;;;;;68.40;11.83;;;20.50;55.10;;;;;;5068572;28;20213;-90
2023/05/22 05:59:27;;;;;;;39.13;9.60;;;20.60;55.80;;;;;;5068795;28;20572;-88
2023/05/22 06:01:54;;;;;;;55.57;10.57;;;20.60;55.20;;;;;;5074791;28;20202;-88
2023/05/22 06:04:23;;;;;;;38.77;9.53;;;20.50;55.10;;;;;;5088897;28;20199;-88
2023/05/22 06:06:50;;;;;;;41.23;9.13;;;20.60;55.30;;;;;;5073554;28;20227;-88
2023/05/22 06:09:17;;;;;;;64.70;10.83;;;20.50;55.20;;;;;;5068691;28;20207;-87
2023/05/22 06:11:44;;;;;;;52.13;9.83;;;20.50;55.10;;;;;;5067959;28;20550;-87
2023/05/22 06:14:11;;;;;;;38.33;8.97;;;20.50;55.10;;;;;;5087799;28;20202;-87
2023/05/22 06:16:38;;;;;;;34.80;8.77;;;20.60;55.20;;;;;;5082838;28;20257;-90
2023/05/22 06:19:05;;;;;;;41.33;9.70;;;20.60;55.30;;;;;;5071802;28;20215;-87
2023/05/22 06:21:33;;;;;;;34.13;8.50;;;20.50;55.20;;;;;;5085647;28;20191;-88
2023/05/22 06:24:00;;;;;;;45.07;9.10;;;20.60;55.30;;;;;;5078238;28;20286;-87
2023/05/22 06:26:27;;;;;;;45.73;9.73;;;20.50;55.10;;;;;;5088110;28;20206;-88
2023/05/22 06:28:54;;;;;;;41.63;9.00;;;20.50;55.20;;;;;;5068920;28;20278;-87
2023/05/22 06:31:23;;;;;;;49.23;9.77;;;20.50;55.20;;;;;;5073345;28;20295;-88
2023/05/22 06:33:50;;;;;;;36.83;8.83;;;20.60;55.30;;;;;;5086292;28;20210;-89
2023/05/22 06:36:17;;;;;;;43.67;9.13;;;20.50;55.20;;;;;;5079207;28;20315;-88
2023/05/22 06:38:46;;;;;;;36.33;8.87;;;20.60;55.30;;;;;;5072648;28;20564;-88
2023/05/22 06:41:13;;;;;;;43.33;9.87;;;20.50;55.20;;;;;;5073864;28;20227;-88
2023/05/22 06:43:40;;;;;;;37.23;8.90;;;20.50;55.20;;;;;;5072667;28;20290;-89
2023/05/22 06:46:10;;;;;;;48.43;9.53;;;20.50;55.20;;;;;;5084748;28;20258;-88
2023/05/22 06:48:37;;;;;;;35.47;7.97;;;20.60;55.30;;;;;;5080679;28;20673;-88
2023/05/22 06:51:04;;;;;;;37.23;8.67;;;20.60;55.30;;;;;;5074830;28;20593;-88
2023/05/22 06:53:31;;;;;;;34.97;8.57;;;20.50;55.30;;;;;;5080299;28;20205;-87
2023/05/22 06:55:59;;;;;;;60.57;10.13;;;20.60;55.30;;;;;;5075833;28;20208;-88
2023/05/22 06:58:26;;;;;;;33.77;8.13;;;20.60;55.30;;;;;;5071627;28;20281;-88
2023/05/22 07:00:54;;;;;;;44.80;8.97;;;20.60;55.30;;;;;;5087777;28;20298;-88
2023/05/22 07:03:21;;;;;;;50.50;9.60;;;20.60;55.30;;;;;;5080267;28;20210;-88
2023/05/22 07:05:48;;;;;;;57.73;10.30;;;20.50;55.30;;;;;;5071178;28;20203;-87
2023/05/22 07:08:15;;;;;;;50.97;9.97;;;20.60;55.30;;;;;;5068957;28;20283;-87
2023/05/22 07:10:42;;;;;;;33.57;8.37;;;20.60;55.30;;;;;;5070882;28;20195;-89
2023/05/22 07:13:11;;;;;;;44.23;9.37;;;20.60;55.30;;;;;;5087386;28;20241;-87
2023/05/22 07:15:38;;;;;;;77.57;11.77;;;20.60;55.30;;;;;;5085057;28;20195;-88
2023/05/22 07:18:05;;;;;;;50.33;8.83;;;20.60;55.30;;;;;;5067641;28;20191;-89
2023/05/22 07:20:32;;;;;;;54.47;9.40;;;20.60;55.30;;;;;;5070501;28;20199;-88
2023/05/22 07:22:59;;;;;;;36.67;8.27;;;20.60;55.40;;;;;;5076044;28;20205;-87
2023/05/22 07:25:26;;;;;;;36.37;8.00;;;20.60;55.30;;;;;;5080374;28;20203;-87
2023/05/22 07:27:54;;;;;;;26.80;7.43;;;20.60;55.30;;;;;;5080313;28;20537;-88
2023/05/22 07:30:22;;;;;;;43.50;8.77;;;20.60;55.40;;;;;;5076941;28;20290;-87
2023/05/22 07:32:49;;;;;;;40.67;8.77;;;20.60;55.40;;;;;;5069046;28;20254;-87
2023/05/22 07:35:16;;;;;;;40.30;8.43;;;20.70;55.50;;;;;;5079270;28;20242;-88
2023/05/22 07:37:48;;;;;;;51.17;9.83;;;20.60;55.40;;;;;;5075987;28;20287;-86
2023/05/22 07:40:16;;;;;;;34.97;8.00;;;20.70;55.50;;;;;;5084274;28;20624;-87
2023/05/22 07:42:43;;;;;;;28.80;7.57;;;20.70;55.50;;;;;;5087160;28;20214;-88
2023/05/22 07:45:10;;;;;;;46.33;8.90;;;20.70;55.50;;;;;;5087477;28;20302;-87
2023/05/22 07:47:39;;;;;;;25.03;7.30;;;20.70;55.50;;;;;;5087574;28;20203;-87
2023/05/22 07:50:08;;;;;;;40.63;8.40;;;20.70;55.50;;;;;;5079363;28;20210;-87
2023/05/22 07:52:35;;;;;;;45.17;8.43;;;20.70;55.50;;;;;;5085824;28;20233;-87
2023/05/22 07:55:01;;;;;;;32.47;7.60;;;20.70;55.50;;;;;;5087358;28;20569;-87
2023/05/22 07:57:29;;;;;;;52.87;9.40;;;20.70;55.50;;;;;;5082968;28;20286;-88
2023/05/22 07:59:58;;;;;;;28.37;7.17;;;20.70;55.50;;;;;;5083511;28;20208;-86
2023/05/22 08:02:25;;;;;;;36.53;7.63;;;20.70;55.50;;;;;;5073715;28;20199;-87
2023/05/22 08:04:54;;;;;;;30.43;6.93;;;20.70;55.50;;;;;;5067534;28;20200;-87
2023/05/22 08:07:21;;;;;;;48.27;8.57;;;20.70;55.50;;;;;;5083844;28;20277;-87
2023/05/22 08:09:48;;;;;;;37.43;7.73;;;20.70;55.50;;;;;;5084599;28;20651;-87
2023/05/22 08:12:15;;;;;;;35.37;7.63;;;20.70;55.50;;;;;;5074946;28;20329;-88
2023/05/22 08:14:41;;;;;;;32.63;7.53;;;20.80;55.60;;;;;;5086258;28;20720;-88
2023/05/22 08:17:08;;;;;;;31.10;7.53;;;20.70;56.10;;;;;;5076092;28;20202;-88
2023/05/22 08:19:36;;;;;;;30.23;7.30;;;20.70;55.50;;;;;;5082098;28;20286;-87
2023/05/22 08:22:04;;;;;;;34.80;8.07;;;20.80;55.60;;;;;;5071535;28;20197;-91
2023/05/22 08:24:31;;;;;;;28.87;6.73;;;20.70;55.50;;;;;;5071299;28;20274;-89
2023/05/22 08:26:59;;;;;;;43.17;7.90;;;20.70;55.50;;;;;;5083485;28;20674;-87
2023/05/22 08:29:29;;;;;;;31.77;7.30;;;20.80;55.60;;;;;;5079608;28;20203;-87
2023/05/22 08:31:56;;;;;;;29.10;7.00;;;20.70;55.50;;;;;;5069539;28;20330;-88
2023/05/22 08:34:24;;;;;;;49.37;8.20;;;20.80;55.60;;;;;;5066372;28;20214;-87
2023/05/22 08:36:51;;;;;;;31.00;7.37;;;20.80;55.60;;;;;;5066809;28;20379;-87
2023/05/22 08:39:19;;;;;;;39.83;7.90;;;20.80;55.60;;;;;;5066906;28;20685;-86
2023/05/22 08:41:46;;;;;;;29.97;6.73;;;20.80;55.60;;;;;;5066851;28;20203;-87
2023/05/22 08:44:13;;;;;;;33.53;7.17;;;20.80;55.60;;;;;;5067128;28;20201;-87
2023/05/22 08:46:42;;;;;;;20.33;6.53;;;20.80;55.60;;;;;;5066699;28;20309;-88
2023/05/22 08:49:10;;;;;;;37.33;7.50;;;20.80;55.60;;;;;;5066754;28;20199;-87
2023/05/22 08:51:39;;;;;;;33.53;7.57;;;20.90;55.70;;;;;;5086321;28;20586;-87
2023/05/22 08:54:07;;;;;;;31.93;7.07;;;20.80;55.60;;;;;;5074603;28;20286;-86
2023/05/22 08:56:36;;;;;;;32.87;6.83;;;20.80;55.60;;;;;;5077812;28;20209;-86
2023/05/22 08:59:03;;;;;;;24.80;6.40;;;20.90;55.70;;;;;;5079871;28;20196;-86
2023/05/22 09:01:31;;;;;;;57.10;9.53;;;20.90;55.70;;;;;;5085366;28;20214;-86
2023/05/22 09:04:01;;;;;;;44.43;8.53;;;20.90;55.70;;;;;;5066266;28;20206;-88
2023/05/22 09:06:29;;;;;;;55.63;10.00;;;20.90;55.80;;;;;;5078744;28;20206;-88
2023/05/22 09:08:56;;;;;;;33.63;7.23;;;20.90;55.70;;;;;;5086057;28;20215;-88
2023/05/22 09:11:23;;;;;;;48.07;8.13;;;20.90;55.70;;;;;;5084089;28;20209;-88
2023/05/22 09:13:52;;;;;;;48.70;8.27;;;20.90;55.70;;;;;;5073438;28;20547;-88
2023/05/22 09:16:19;;;;;;;53.20;9.27;;;20.90;55.70;;;;;;5089253;28;20556;-87
2023/05/22 09:18:46;;;;;;;31.47;6.73;;;20.90;55.70;;;;;;5084614;28;20296;-88
2023/05/22 09:21:14;;;;;;;29.23;7.33;;;20.90;55.70;;;;;;5088025;28;20290;-91
2023/05/22 09:23:41;;;;;;;63.80;9.50;;;20.90;55.70;;;;;;5077286;28;20195;-87
2023/05/22 09:26:08;;;;;;;62.10;9.70;;;20.90;55.70;;;;;;5071181;28;20214;-86
2023/05/22 09:28:36;;;;;;;29.43;6.93;;;21.00;55.80;;;;;;5071380;28;20202;-87
2023/05/22 09:31:05;;;;;;;50.23;8.63;;;21.00;55.80;;;;;;5069127;28;20285;-87
2023/05/22 09:33:32;;;;;;;24.87;6.67;;;20.90;55.70;;;;;;5068591;28;20699;-86
2023/05/22 09:35:59;;;;;;;31.67;7.50;;;21.00;55.80;;;;;;5074805;28;20920;-86
2023/05/22 09:38:30;;;;;;;58.97;8.93;;;21.00;55.80;;;;;;5083062;28;20212;-86
2023/05/22 09:40:57;;;;;;;41.63;7.97;;;21.00;55.80;;;;;;5070680;28;20315;-88
2023/05/22 09:43:25;;;;;;;73.37;10.80;;;21.00;55.80;;;;;;5081507;28;20293;-87
2023/05/22 09:45:57;;;;;;;78.77;11.13;;;21.00;55.80;;;;;;5068200;28;20218;-88
2023/05/22 09:48:25;;;;;;;30.07;6.93;;;21.00;55.80;;;;;;5086010;28;20219;-87
2023/05/22 09:50:54;;;;;;;44.50;8.30;;;21.00;55.80;;;;;;5074897;28;20203;-90
2023/05/22 09:53:26;;;;;;;56.53;9.10;;;21.00;55.80;;;;;;5077620;28;20244;-88
2023/05/22 09:55:55;;;;;;;65.93;9.67;;;21.00;55.90;;;;;;5079313;28;20287;-88
2023/05/22 09:58:26;;;;;;;28.23;6.53;;;21.00;55.90;;;;;;5089168;28;20203;-88
2023/05/22 10:00:55;;;;;;;30.90;7.03;;;21.00;55.90;;;;;;5078551;28;20210;-86
2023/05/22 10:03:26;;;;;;;24.43;6.80;;;21.00;55.90;;;;;;5083018;28;20615;-88
2023/05/22 10:05:55;;;;;;;30.87;6.93;;;21.10;56.00;;;;;;5089507;28;20305;-89
2023/05/22 10:08:26;;;;;;;40.73;7.43;;;21.00;56.00;;;;;;5083138;28;20932;-89
2023/05/22 10:10:53;;;;;;;36.90;7.30;;;21.00;56.00;;;;;;5078263;28;20203;-88
2023/05/22 10:13:21;;;;;;;23.90;6.10;;;21.10;56.00;;;;;;5089427;28;20246;-89
2023/05/22 10:15:48;;;;;;;31.03;6.87;;;21.10;56.00;;;;;;5089142;28;20668;-89
2023/05/22 10:18:16;;;;;;;29.60;6.37;;;21.10;56.10;;;;;;5074231;28;20239;-89
2023/05/22 10:20:45;;;;;;;36.50;7.13;;;21.10;56.10;;;;;;5069691;28;20254;-90
2023/05/22 10:23:13;;;;;;;40.23;7.93;;;21.10;56.10;;;;;;5071015;28;20207;-90
2023/05/22 10:25:41;;;;;;;41.73;7.90;;;21.10;56.10;;;;;;5068886;28;20677;-88
2023/05/22 10:28:09;;;;;;;39.77;7.47;;;21.10;56.10;;;;;;5072780;28;20297;-88
2023/05/22 10:30:46;;;;;;;66.13;9.53;;;21.10;56.10;;;;;;5077455;28;20264;-89
2023/05/22 10:33:17;;;;;;;27.40;7.00;;;21.20;56.30;;;;;;5081446;28;20220;-88
2023/05/22 10:35:49;;;;;;;33.47;7.30;;;21.20;56.20;;;;;;5085487;28;20199;-86
2023/05/22 10:38:36;;;;;;;36.90;7.50;;;21.20;56.30;;;;;;5070463;28;20629;-89
2023/05/22 10:41:04;;;;;;;32.20;7.83;;;21.20;56.30;;;;;;5072425;28;20678;-86
2023/05/22 10:43:31;;;;;;;42.53;8.13;;;21.30;56.30;;;;;;5084789;28;20726;-87
2023/05/22 10:46:03;;;;;;;29.00;7.33;;;21.20;56.80;;;;;;5078051;28;20305;-87
2023/05/22 10:48:36;;;;;;;43.60;8.60;;;21.30;56.30;;;;;;5084881;28;20207;-87
2023/05/22 10:51:06;;;;;;;31.40;7.47;;;21.30;56.30;;;;;;5071402;28;20351;-87
2023/05/22 10:53:34;;;;;;;32.73;6.83;;;21.30;56.30;;;;;;5068269;28;20322;-87
2023/05/22 10:56:10;;;;;;;29.60;7.00;;;21.40;56.40;;;;;;5083526;28;20284;-87
2023/05/22 10:58:37;;;;;;;27.93;6.90;;;21.40;56.50;;;;;;5076483;28;20202;-87
2023/05/22 11:01:14;;;;;;;33.23;7.77;;;21.40;56.40;;;;;;5078996;28;20201;-87
2023/05/22 11:03:55;;;;;;;27.97;6.93;;;21.40;56.50;;;;;;5089950;28;20202;-87
2023/05/22 11:06:40;;;;;;;23.30;6.67;;;21.40;56.50;;;;;;5074682;28;20197;-88
2023/05/22 11:09:27;;;;;;;33.63;7.73;;;21.40;56.50;;;;;;5068764;28;20212;-90
2023/05/22 11:12:16;;;;;;;29.97;7.23;;;21.50;56.60;;;;;;5068776;28;20308;-87
2023/05/22 11:14:43;;;;;;;26.80;6.67;;;21.50;56.60;;;;;;5071724;28;20206;-87
2023/05/22 11:17:13;;;;;;;38.33;8.27;;;21.50;56.50;;;;;;5073840;28;20204;-87
2023/05/22 11:19:41;;;;;;;29.20;7.60;;;21.50;56.50;;;;;;5088613;28;20617;-91
2023/05/22 11:22:09;;;;;;;42.43;8.77;;;21.50;56.50;;;;;;5088647;28;20307;-88
2023/05/22 11:24:38;;;;;;;43.43;8.03;;;21.50;56.50;;;;;;5084021;28;20225;-88
2023/05/22 11:27:07;;;;;;;33.43;7.40;;;21.60;56.60;;;;;;5086088;28;20930;-90
2023/05/22 11:29:34;;;;;;;31.77;6.97;;;21.50;56.60;;;;;;5088052;28;20399;-90
2023/05/22 11:32:02;;;;;;;35.90;7.33;;;21.60;56.60;;;;;;5087471;28;20194;-88
2023/05/22 11:34:29;;;;;;;31.87;7.23;;;21.60;56.60;;;;;;5067842;28;20296;-90
2023/05/22 11:36:59;;;;;;;33.60;7.43;;;21.60;56.60;;;;;;5068007;28;20294;-91
2023/05/22 11:39:27;;;;;;;30.83;7.67;;;21.60;56.70;;;;;;5067796;28;20290;-89
2023/05/22 11:41:54;;;;;;;27.00;7.37;;;21.60;56.60;;;;;;5080176;28;20282;-88
2023/05/22 11:44:21;;;;;;;32.43;7.63;;;21.70;56.70;;;;;;5086286;28;20223;-92
2023/05/22 11:46:48;;;;;;;25.03;6.77;;;21.70;56.70;;;;;;5077512;28;20303;-88
2023/05/22 11:49:16;;;;;;;36.43;8.57;;;21.70;56.70;;;;;;5067700;28;20214;-87
2023/05/22 11:51:43;;;;;;;21.30;6.30;;;21.70;56.70;;;;;;5067668;28;20729;-88
2023/05/22 11:54:10;;;;;;;48.47;8.70;;;21.70;56.70;;;;;;5067746;28;20231;-88
2023/05/22 11:56:39;;;;;;;39.57;8.80;;;21.80;56.80;;;;;;5069672;28;20208;-87
2023/05/22 11:59:06;;;;;;;39.63;8.07;;;21.80;56.80;;;;;;5072837;28;20293;-89
2023/05/22 12:01:34;;;;;;;31.73;6.97;;;21.80;56.80;;;;;;5087830;28;20203;-87
2023/05/22 12:04:02;;;;;;;29.57;7.33;;;21.80;56.80;;;;;;5087623;28;20259;-88
2023/05/22 12:06:31;;;;;;;44.83;8.50;;;21.80;56.80;;;;;;5088001;28;20229;-88
2023/05/22 12:08:59;;;;;;;32.07;7.50;;;21.80;56.80;;;;;;5082984;28;20666;-86
2023/05/22 12:11:26;;;;;;;32.30;7.87;;;21.80;56.80;;;;;;5067435;28;20199;-87
2023/05/22 12:14:02;;;;;;;30.03;7.33;;;21.90;56.90;;;;;;5069447;28;20230;-88
2023/05/22 12:16:34;;;;;;;30.87;7.73;;;21.90;57.00;;;;;;5084656;28;20209;-88
2023/05/22 12:19:05;;;;;;;27.20;7.40;;;21.90;56.90;;;;;;5071561;28;20200;-88
2023/05/22 12:21:32;;;;;;;49.97;9.77;;;21.90;56.90;;;;;;5080509;28;20199;-91
2023/05/22 12:24:03;;;;;;;29.27;8.03;;;21.90;56.90;;;;;;5075810;28;20292;-92
2023/05/22 12:26:30;;;;;;;29.50;7.90;;;22.00;57.00;;;;;;5085426;28;20288;-89
2023/05/22 12:28:58;;;;;;;38.67;8.53;;;22.00;56.90;;;;;;5087547;28;20253;-91
2023/05/22 12:31:26;;;;;;;28.43;6.97;;;22.00;56.90;;;;;;5086956;28;20328;-90
2023/05/22 12:33:54;;;;;;;29.10;7.87;;;22.00;56.90;;;;;;5072206;28;20216;-88
2023/05/22 12:36:22;;;;;;;30.33;8.20;;;22.00;56.90;;;;;;5071005;28;20200;-88
2023/05/22 12:38:48;;;;;;;34.57;8.10;;;22.00;56.90;;;;;;5072015;28;20314;-86
2023/05/22 12:41:15;;;;;;;36.23;8.63;;;22.00;56.90;;;;;;5071644;28;20242;-89
2023/05/22 12:43:43;;;;;;;25.63;7.63;;;22.00;56.90;;;;;;5090271;28;20291;-88